| time (UTC) | temp C | wind direction | speed KPH | gust KPH | rain 1hr cm | rain 24hr cm | rain mn cm | humidity % | barometer mb |
| 20260906234327 | 35 | 247 | 0.0 | 0.0 | 0.00 | 0.00 | 0.00 | 20 | 1016.9 |
| 20260906233826 | 35 | 205 | 9.7 | 11.3 | 0.00 | 0.00 | 0.00 | 20 | 1017.0 |
| 20260906233325 | 35 | 188 | 3.2 | 3.2 | 0.00 | 0.00 | 0.00 | 20 | 1016.9 |
| 20260906232821 | 35 | 218 | 9.7 | 12.9 | 0.00 | 0.00 | 0.00 | 20 | 1017.1 |
| 20260906232320 | 35 | 228 | 8.0 | 11.3 | 0.00 | 0.00 | 0.00 | 20 | 1017.1 |
| 20260906231815 | 36 | 203 | 9.7 | 14.5 | 0.00 | 0.00 | 0.00 | 19 | 1016.9 |
| 20260906231310 | 36 | 200 | 1.6 | 1.6 | 0.00 | 0.00 | 0.00 | 19 | 1017.0 |
| 20260906230809 | 35 | 180 | 3.2 | 4.8 | 0.00 | 0.00 | 0.00 | 19 | 1017.1 |
| 20260906230305 | 35 | 156 | 0.0 | 1.6 | 0.00 | 0.00 | 0.00 | 19 | 1017.1 |
| 20260906225802 | 35 | 113 | 3.2 | 6.4 | 0.00 | 0.00 | 0.00 | 19 | 1017.2 |
| 20260906225258 | 35 | 181 | 1.6 | 3.2 | 0.00 | 0.00 | 0.00 | 19 | 1017.1 |
| 20260906224754 | 35 | 188 | 8.0 | 11.3 | 0.00 | 0.00 | 0.00 | 19 | 1017.0 |
| 20260906224250 | 35 | 167 | 4.8 | 6.4 | 0.00 | 0.00 | 0.00 | 18 | 1017.0 |
| 20260906223747 | 36 | 233 | 4.8 | 6.4 | 0.00 | 0.00 | 0.00 | 18 | 1017.0 |
| 20260906223242 | 35 | 216 | 4.8 | 6.4 | 0.00 | 0.00 | 0.00 | 18 | 1017.0 |
| 20260906222740 | 35 | 182 | 6.4 | 9.7 | 0.00 | 0.00 | 0.00 | 19 | 1017.3 |
| 20260906222239 | 35 | 214 | 8.0 | 14.5 | 0.00 | 0.00 | 0.00 | 19 | 1017.2 |
| 20260906221737 | 35 | 205 | 8.0 | 9.7 | 0.00 | 0.00 | 0.00 | 19 | 1017.3 |
| 20260906221231 | 36 | 178 | 0.0 | 0.0 | 0.00 | 0.00 | 0.00 | 18 | 1017.3 |
| 20260906220727 | 35 | 214 | 9.7 | 12.9 | 0.00 | 0.00 | 0.00 | 19 | 1017.5 |
| 20260906220222 | 35 | 214 | 4.8 | 4.8 | 0.00 | 0.00 | 0.00 | 18 | 1017.5 |
| 20260906215721 | 35 | 139 | 0.0 | 1.6 | 0.00 | 0.00 | 0.00 | 18 | 1017.6 |
| 20260906215221 | 36 | 170 | 4.8 | 4.8 | 0.00 | 0.00 | 0.00 | 18 | 1017.6 |
| 20260906214719 | 35 | 198 | 1.6 | 1.6 | 0.00 | 0.00 | 0.00 | 18 | 1017.8 |
| 20260906214215 | 35 | 210 | 6.4 | 9.7 | 0.00 | 0.00 | 0.00 | 18 | 1017.7 |
| 20260906213713 | 35 | 186 | 8.0 | 11.3 | 0.00 | 0.00 | 0.00 | 18 | 1017.8 |
| 20260906213208 | 35 | 185 | 12.9 | 14.5 | 0.00 | 0.00 | 0.00 | 18 | 1018.3 |
| 20260906212705 | 35 | 184 | 3.2 | 4.8 | 0.00 | 0.00 | 0.00 | 17 | 1018.3 |
| 20260906212201 | 36 | 230 | 6.4 | 9.7 | 0.00 | 0.00 | 0.00 | 17 | 1018.4 |
| 20260906211701 | 35 | 234 | 3.2 | 3.2 | 0.00 | 0.00 | 0.00 | 17 | 1018.3 |
| 20260906211156 | 37 | 241 | 4.8 | 6.4 | 0.00 | 0.00 | 0.00 | 16 | 1018.6 |
| 20260906210651 | 36 | 169 | 1.6 | 1.6 | 0.00 | 0.00 | 0.00 | 16 | 1018.6 |
| 20260906210151 | 36 | 202 | 3.2 | 11.3 | 0.00 | 0.00 | 0.00 | 16 | 1018.5 |
| 20260906205647 | 35 | 201 | 1.6 | 3.2 | 0.00 | 0.00 | 0.00 | 16 | 1018.7 |
| 20260906205143 | 35 | 338 | 4.8 | 6.4 | 0.00 | 0.00 | 0.00 | 16 | 1019.0 |
| 20260906204643 | 35 | 193 | 1.6 | 3.2 | 0.00 | 0.00 | 0.00 | 16 | 1018.9 |
| 20260906204137 | 35 | 217 | 6.4 | 6.4 | 0.00 | 0.00 | 0.00 | 16 | 1019.0 |
| 20260906203637 | 34 | 239 | 6.4 | 6.4 | 0.00 | 0.00 | 0.00 | 17 | 1018.9 |
| 20260906203132 | 35 | 207 | 4.8 | 4.8 | 0.00 | 0.00 | 0.00 | 17 | 1019.2 |
| 20260906202629 | 35 | 284 | 3.2 | 4.8 | 0.00 | 0.00 | 0.00 | 16 | 1019.4 |
| 20260906202128 | 35 | 237 | 3.2 | 3.2 | 0.00 | 0.00 | 0.00 | 16 | 1019.3 |
| 20260906201623 | 35 | 122 | 1.6 | 3.2 | 0.00 | 0.00 | 0.00 | 17 | 1019.4 |
| 20260906201122 | 35 | 217 | 4.8 | 4.8 | 0.00 | 0.00 | 0.00 | 17 | 1019.6 |
| 20260906200619 | 35 | 222 | 3.2 | 4.8 | 0.00 | 0.00 | 0.00 | 16 | 1019.6 |
| 20260906200114 | 35 | 302 | 6.4 | 11.3 | 0.00 | 0.00 | 0.00 | 16 | 1019.6 |
| 20260906195609 | 34 | 185 | 3.2 | 3.2 | 0.00 | 0.00 | 0.00 | 17 | 1019.6 |
| 20260906195106 | 35 | 299 | 3.2 | 4.8 | 0.00 | 0.00 | 0.00 | 17 | 1019.6 |
| 20260906194601 | 35 | 182 | 0.0 | 0.0 | 0.00 | 0.00 | 0.00 | 16 | 1019.8 |
| 20260906194057 | 34 | 141 | 3.2 | 3.2 | 0.00 | 0.00 | 0.00 | 18 | 1019.8 |
| 20260906193556 | 35 | 26 | 9.7 | 11.3 | 0.00 | 0.00 | 0.00 | 17 | 1019.8 |
| 20260906193052 | 35 | 250 | 8.0 | 11.3 | 0.00 | 0.00 | 0.00 | 17 | 1019.7 |
| 20260906192547 | 33 | 171 | 1.6 | 1.6 | 0.00 | 0.00 | 0.00 | 17 | 1019.9 |
| 20260906192046 | 33 | 154 | 1.6 | 1.6 | 0.00 | 0.00 | 0.00 | 18 | 1020.4 |
| 20260906191542 | 34 | 222 | 4.8 | 4.8 | 0.00 | 0.00 | 0.00 | 17 | 1020.1 |
| 20260906191041 | 33 | 217 | 4.8 | 4.8 | 0.00 | 0.00 | 0.00 | 18 | 1020.3 |
| 20260906190540 | 34 | 178 | 0.0 | 1.6 | 0.00 | 0.00 | 0.00 | 17 | 1020.5 |
| 20260906190035 | 34 | 229 | 4.8 | 4.8 | 0.00 | 0.00 | 0.00 | 17 | 1020.4 |
| 20260906185534 | 33 | 188 | 6.4 | 9.7 | 0.00 | 0.00 | 0.00 | 17 | 1020.5 |
| 20260906185033 | 34 | 174 | 4.8 | 4.8 | 0.00 | 0.00 | 0.00 | 17 | 1020.6 |
| 20260906184528 | 33 | 301 | 3.2 | 4.8 | 0.00 | 0.00 | 0.00 | 17 | 1020.7 |
| 20260906184024 | 33 | 224 | 6.4 | 9.7 | 0.00 | 0.00 | 0.00 | 16 | 1020.7 |
| 20260906183520 | 33 | 325 | 4.8 | 6.4 | 0.00 | 0.00 | 0.00 | 17 | 1020.8 |
| 20260906183015 | 33 | 24 | 4.8 | 4.8 | 0.00 | 0.00 | 0.00 | 17 | 1020.8 |
| 20260906182510 | 33 | 195 | 1.6 | 3.2 | 0.00 | 0.00 | 0.00 | 17 | 1021.0 |
| 20260906182007 | 32 | 196 | 1.6 | 3.2 | 0.00 | 0.00 | 0.00 | 21 | 1021.1 |
| 20260906181502 | 33 | 212 | 3.2 | 3.2 | 0.00 | 0.00 | 0.00 | 22 | 1021.3 |
| 20260906180957 | 33 | 183 | 3.2 | 4.8 | 0.00 | 0.00 | 0.00 | 23 | 1021.4 |
| 20260906180452 | 32 | 168 | 3.2 | 3.2 | 0.00 | 0.00 | 0.00 | 23 | 1021.5 |
| 20260906175950 | 32 | 170 | 0.0 | 0.0 | 0.00 | 0.00 | 0.00 | 23 | 1021.5 |
| 20260906175445 | 32 | 142 | 1.6 | 1.6 | 0.00 | 0.00 | 0.00 | 24 | 1021.7 |
| 20260906174944 | 31 | 209 | 3.2 | 3.2 | 0.00 | 0.00 | 0.00 | 25 | 1021.7 |
| 20260906174443 | 30 | 179 | 0.0 | 0.0 | 0.00 | 0.00 | 0.00 | 26 | 1021.8 |
| 20260906173938 | 30 | 132 | 0.0 | 1.6 | 0.00 | 0.00 | 0.00 | 28 | 1021.9 |
| 20260906173433 | 31 | 61 | 4.8 | 4.8 | 0.00 | 0.00 | 0.00 | 26 | 1021.9 |
| 20260906172933 | 31 | 174 | 0.0 | 1.6 | 0.00 | 0.00 | 0.00 | 27 | 1021.9 |
| 20260906172430 | 30 | 37 | 3.2 | 4.8 | 0.00 | 0.00 | 0.00 | 28 | 1022.0 |
| 20260906171924 | 30 | 12 | 6.4 | 11.3 | 0.00 | 0.00 | 0.00 | 30 | 1022.0 |
| 20260906171419 | 29 | 0 | 4.8 | 6.4 | 0.00 | 0.00 | 0.00 | 31 | 1022.0 |
| 20260906170915 | 28 | 298 | 6.4 | 9.7 | 0.00 | 0.00 | 0.00 | 31 | 1022.2 |
| 20260906170411 | 27 | 246 | 3.2 | 4.8 | 0.00 | 0.00 | 0.00 | 32 | 1022.1 |
| 20260906165907 | 27 | 41 | 3.2 | 3.2 | 0.00 | 0.00 | 0.00 | 33 | 1022.2 |
| 20260906165406 | 27 | 206 | 3.2 | 3.2 | 0.00 | 0.00 | 0.00 | 34 | 1022.5 |
| 20260906164901 | 27 | 339 | 6.4 | 9.7 | 0.00 | 0.00 | 0.00 | 34 | 1022.5 |
| 20260906164400 | 27 | 283 | 6.4 | 6.4 | 0.00 | 0.00 | 0.00 | 34 | 1022.5 |
| 20260906163856 | 27 | 300 | 4.8 | 4.8 | 0.00 | 0.00 | 0.00 | 35 | 1022.6 |
| 20260906163352 | 27 | 294 | 1.6 | 3.2 | 0.00 | 0.00 | 0.00 | 35 | 1022.5 |
| 20260906162850 | 27 | 197 | 3.2 | 4.8 | 0.00 | 0.00 | 0.00 | 35 | 1022.4 |
| 20260906162349 | 27 | 219 | 3.2 | 4.8 | 0.00 | 0.00 | 0.00 | 34 | 1022.4 |
| 20260906161844 | 26 | 18 | 4.8 | 4.8 | 0.00 | 0.00 | 0.00 | 34 | 1022.6 |
| 20260906161344 | 26 | 161 | 1.6 | 3.2 | 0.00 | 0.00 | 0.00 | 34 | 1022.5 |
| 20260906160843 | 26 | 19 | 3.2 | 3.2 | 0.00 | 0.00 | 0.00 | 35 | 1022.4 |
| 20260906160337 | 26 | 77 | 3.2 | 3.2 | 0.00 | 0.00 | 0.00 | 35 | 1022.5 |
| 20260906155835 | 26 | 69 | 6.4 | 6.4 | 0.00 | 0.00 | 0.00 | 35 | 1022.4 |
| 20260906155329 | 25 | 226 | 3.2 | 3.2 | 0.00 | 0.00 | 0.00 | 36 | 1022.5 |
| 20260906154825 | 25 | 39 | 6.4 | 11.3 | 0.00 | 0.00 | 0.00 | 35 | 1022.4 |
| 20260906154319 | 25 | 204 | 3.2 | 4.8 | 0.00 | 0.00 | 0.00 | 36 | 1022.6 |
| 20260906153819 | 25 | 321 | 6.4 | 6.4 | 0.00 | 0.00 | 0.00 | 36 | 1022.4 |
| 20260906153318 | 25 | 346 | 4.8 | 9.7 | 0.00 | 0.00 | 0.00 | 36 | 1022.5 |
| 20260906152813 | 25 | 283 | 6.4 | 6.4 | 0.00 | 0.00 | 0.00 | 36 | 1022.6 |
| 20260906152308 | 25 | 27 | 3.2 | 4.8 | 0.00 | 0.00 | 0.00 | 35 | 1022.7 |
| 20260906151808 | 25 | 234 | 4.8 | 4.8 | 0.00 | 0.00 | 0.00 | 34 | 1022.5 |
| 20260906151303 | 25 | 28 | 8.0 | 9.7 | 0.00 | 0.00 | 0.00 | 35 | 1022.5 |
| 20260906150759 | 25 | 355 | 9.7 | 11.3 | 0.00 | 0.00 | 0.00 | 34 | 1022.4 |
| 20260906150254 | 25 | 229 | 4.8 | 6.4 | 0.00 | 0.00 | 0.00 | 34 | 1022.5 |
| 20260906145753 | 25 | 41 | 6.4 | 6.4 | 0.00 | 0.00 | 0.00 | 35 | 1022.4 |
| 20260906145251 | 25 | 348 | 4.8 | 4.8 | 0.00 | 0.00 | 0.00 | 35 | 1022.5 |
| 20260906144747 | 24 | 48 | 6.4 | 6.4 | 0.00 | 0.00 | 0.00 | 35 | 1022.2 |
| 20260906144242 | 24 | 345 | 3.2 | 4.8 | 0.00 | 0.00 | 0.00 | 34 | 1022.5 |
| 20260906143741 | 23 | 318 | 4.8 | 4.8 | 0.00 | 0.00 | 0.00 | 35 | 1022.6 |
| 20260906143238 | 24 | 329 | 6.4 | 6.4 | 0.00 | 0.00 | 0.00 | 34 | 1022.7 |
| 20260906142738 | 23 | 115 | 4.8 | 4.8 | 0.00 | 0.00 | 0.00 | 35 | 1022.6 |
| 20260906142233 | 23 | 36 | 6.4 | 6.4 | 0.00 | 0.00 | 0.00 | 36 | 1022.1 |
| 20260906141732 | 23 | 26 | 8.0 | 11.3 | 0.00 | 0.00 | 0.00 | 37 | 1022.2 |
| 20260906141227 | 23 | 175 | 3.2 | 6.4 | 0.00 | 0.00 | 0.00 | 37 | 1022.4 |
| 20260906140727 | 22 | 236 | 3.2 | 3.2 | 0.00 | 0.00 | 0.00 | 37 | 1022.2 |
| 20260906140221 | 22 | 335 | 4.8 | 6.4 | 0.00 | 0.00 | 0.00 | 38 | 1022.0 |
| 20260906135718 | 22 | 113 | 1.6 | 3.2 | 0.00 | 0.00 | 0.00 | 38 | 1022.1 |
| 20260906135214 | 22 | 354 | 4.8 | 6.4 | 0.00 | 0.00 | 0.00 | 38 | 1022.0 |
| 20260906134709 | 22 | 46 | 9.7 | 11.3 | 0.00 | 0.00 | 0.00 | 37 | 1022.2 |
| 20260906134205 | 22 | 35 | 8.0 | 9.7 | 0.00 | 0.00 | 0.00 | 38 | 1022.1 |
| 20260906133700 | 22 | 98 | 1.6 | 1.6 | 0.00 | 0.00 | 0.00 | 38 | 1021.8 |
| 20260906133155 | 22 | 8 | 9.7 | 11.3 | 0.00 | 0.00 | 0.00 | 38 | 1021.8 |
| 20260906132651 | 22 | 26 | 8.0 | 9.7 | 0.00 | 0.00 | 0.00 | 38 | 1021.9 |
| 20260906132146 | 21 | 19 | 9.7 | 12.9 | 0.00 | 0.00 | 0.00 | 38 | 1021.8 |
| 20260906131641 | 21 | 27 | 6.4 | 6.4 | 0.00 | 0.00 | 0.00 | 38 | 1021.8 |
| 20260906131137 | 21 | 24 | 6.4 | 6.4 | 0.00 | 0.00 | 0.00 | 39 | 1021.7 |
| 20260906130632 | 21 | 17 | 6.4 | 9.7 | 0.00 | 0.00 | 0.00 | 39 | 1021.7 |
| 20260906130127 | 21 | 13 | 8.0 | 9.7 | 0.00 | 0.00 | 0.00 | 39 | 1021.8 |
| 20260906125625 | 21 | 47 | 4.8 | 4.8 | 0.00 | 0.00 | 0.00 | 39 | 1021.9 |
| 20260906125123 | 21 | 5 | 4.8 | 6.4 | 0.00 | 0.00 | 0.00 | 38 | 1021.8 |
| 20260906124619 | 21 | 31 | 8.0 | 9.7 | 0.00 | 0.00 | 0.00 | 38 | 1021.7 |
| 20260906124114 | 21 | 44 | 3.2 | 4.8 | 0.00 | 0.00 | 0.00 | 38 | 1021.8 |
| 20260906123614 | 21 | 145 | 1.6 | 3.2 | 0.00 | 0.00 | 0.00 | 38 | 1021.4 |
| 20260906123109 | 21 | 66 | 3.2 | 4.8 | 0.00 | 0.00 | 0.00 | 38 | 1021.5 |
| 20260906122608 | 21 | 27 | 3.2 | 4.8 | 0.00 | 0.00 | 0.00 | 37 | 1021.5 |
| 20260906122104 | 21 | 41 | 8.0 | 9.7 | 0.00 | 0.00 | 0.00 | 37 | 1021.3 |
| 20260906121600 | 22 | 37 | 6.4 | 9.7 | 0.00 | 0.00 | 0.00 | 36 | 1021.4 |
| 20260906121056 | 22 | 51 | 6.4 | 6.4 | 0.00 | 0.00 | 0.00 | 36 | 1021.4 |
| 20260906120551 | 22 | 93 | 3.2 | 4.8 | 0.00 | 0.00 | 0.00 | 37 | 1021.3 |
| 20260906120048 | 22 | 188 | 1.6 | 1.6 | 0.00 | 0.00 | 0.00 | 37 | 1021.5 |
| 20260906115549 | 22 | 31 | 6.4 | 6.4 | 0.00 | 0.00 | 0.00 | 36 | 1021.4 |
| 20260906115044 | 22 | 65 | 3.2 | 3.2 | 0.00 | 0.00 | 0.00 | 36 | 1021.5 |
| 20260906114543 | 22 | 38 | 4.8 | 4.8 | 0.00 | 0.00 | 0.00 | 36 | 1021.5 |
| 20260906114039 | 22 | 33 | 3.2 | 4.8 | 0.00 | 0.00 | 0.00 | 36 | 1021.3 |
| 20260906113538 | 22 | 127 | 0.0 | 0.0 | 0.00 | 0.00 | 0.00 | 36 | 1021.4 |
| 20260906113033 | 22 | 134 | 1.6 | 1.6 | 0.00 | 0.00 | 0.00 | 36 | 1021.4 |
| 20260906112528 | 22 | 163 | 0.0 | 1.6 | 0.00 | 0.00 | 0.00 | 36 | 1021.5 |
| 20260906112025 | 22 | 132 | 1.6 | 1.6 | 0.00 | 0.00 | 0.00 | 36 | 1021.4 |
| 20260906111524 | 23 | 156 | 1.6 | 1.6 | 0.00 | 0.00 | 0.00 | 35 | 1021.3 |
| 20260906111019 | 23 | 120 | 1.6 | 1.6 | 0.00 | 0.00 | 0.00 | 34 | 1021.3 |
| 20260906110514 | 23 | 98 | 3.2 | 3.2 | 0.00 | 0.00 | 0.00 | 34 | 1021.1 |
| 20260906110013 | 23 | 116 | 1.6 | 3.2 | 0.00 | 0.00 | 0.00 | 35 | 1021.3 |
| 20260906105509 | 23 | 153 | 1.6 | 1.6 | 0.00 | 0.00 | 0.00 | 35 | 1021.5 |
| 20260906105005 | 23 | 151 | 0.0 | 1.6 | 0.00 | 0.00 | 0.00 | 35 | 1021.3 |
| 20260906104503 | 23 | 141 | 3.2 | 3.2 | 0.00 | 0.00 | 0.00 | 34 | 1021.4 |
| 20260906104003 | 23 | 101 | 3.2 | 3.2 | 0.00 | 0.00 | 0.00 | 34 | 1021.1 |
| 20260906103501 | 23 | 156 | 1.6 | 1.6 | 0.00 | 0.00 | 0.00 | 34 | 1021.1 |
| 20260906102956 | 23 | 140 | 1.6 | 1.6 | 0.00 | 0.00 | 0.00 | 33 | 1021.3 |
| 20260906102451 | 23 | 99 | 3.2 | 3.2 | 0.00 | 0.00 | 0.00 | 33 | 1021.1 |
| 20260906101950 | 23 | 145 | 1.6 | 1.6 | 0.00 | 0.00 | 0.00 | 33 | 1021.1 |
| 20260906101446 | 23 | 57 | 3.2 | 4.8 | 0.00 | 0.00 | 0.00 | 33 | 1021.2 |
| 20260906100946 | 23 | 84 | 3.2 | 4.8 | 0.00 | 0.00 | 0.00 | 33 | 1021.4 |
| 20260906100441 | 23 | 146 | 3.2 | 3.2 | 0.00 | 0.00 | 0.00 | 33 | 1021.3 |
| 20260906095935 | 23 | 120 | 3.2 | 3.2 | 0.00 | 0.00 | 0.00 | 34 | 1021.1 |
| 20260906095431 | 23 | 148 | 3.2 | 4.8 | 0.00 | 0.00 | 0.00 | 34 | 1021.1 |
| 20260906094926 | 23 | 94 | 1.6 | 1.6 | 0.00 | 0.00 | 0.00 | 35 | 1021.0 |
| 20260906094420 | 23 | 110 | 1.6 | 1.6 | 0.00 | 0.00 | 0.00 | 36 | 1020.7 |
| 20260906093916 | 23 | 161 | 0.0 | 0.0 | 0.00 | 0.00 | 0.00 | 36 | 1021.1 |
| 20260906093413 | 23 | 186 | 0.0 | 0.0 | 0.00 | 0.00 | 0.00 | 37 | 1021.0 |
| 20260906092912 | 23 | 201 | 1.6 | 1.6 | 0.00 | 0.00 | 0.00 | 37 | 1021.0 |
| 20260906092412 | 23 | 175 | 0.0 | 0.0 | 0.00 | 0.00 | 0.00 | 37 | 1021.0 |
| 20260906091908 | 23 | 168 | 0.0 | 0.0 | 0.00 | 0.00 | 0.00 | 36 | 1020.8 |
| 20260906091403 | 23 | 172 | 0.0 | 0.0 | 0.00 | 0.00 | 0.00 | 37 | 1020.8 |
| 20260906090900 | 23 | 177 | 1.6 | 1.6 | 0.00 | 0.00 | 0.00 | 37 | 1020.7 |
| 20260906090359 | 23 | 159 | 0.0 | 0.0 | 0.00 | 0.00 | 0.00 | 38 | 1020.7 |
| 20260906085854 | 23 | 168 | 0.0 | 0.0 | 0.00 | 0.00 | 0.00 | 38 | 1020.6 |
| 20260906085353 | 23 | 165 | 0.0 | 0.0 | 0.00 | 0.00 | 0.00 | 37 | 1020.6 |
| 20260906084848 | 23 | 166 | 0.0 | 0.0 | 0.00 | 0.00 | 0.00 | 37 | 1020.8 |
| 20260906084348 | 23 | 122 | 1.6 | 1.6 | 0.00 | 0.00 | 0.00 | 37 | 1020.8 |
| 20260906083842 | 23 | 190 | 0.0 | 0.0 | 0.00 | 0.00 | 0.00 | 39 | 1020.7 |
| 20260906083338 | 23 | 171 | 0.0 | 0.0 | 0.00 | 0.00 | 0.00 | 37 | 1020.7 |
| 20260906082838 | 23 | 180 | 0.0 | 0.0 | 0.00 | 0.00 | 0.00 | 38 | 1020.8 |
| 20260906082333 | 23 | 172 | 0.0 | 0.0 | 0.00 | 0.00 | 0.00 | 38 | 1020.8 |
| 20260906081829 | 23 | 159 | 0.0 | 0.0 | 0.00 | 0.00 | 0.00 | 37 | 1020.8 |
| 20260906081325 | 23 | 145 | 0.0 | 1.6 | 0.00 | 0.00 | 0.00 | 37 | 1021.1 |
| 20260906080820 | 23 | 162 | 0.0 | 1.6 | 0.00 | 0.00 | 0.00 | 37 | 1020.8 |
| 20260906080317 | 23 | 145 | 1.6 | 3.2 | 0.00 | 0.00 | 0.00 | 37 | 1021.2 |
| 20260906075816 | 23 | 148 | 1.6 | 1.6 | 0.00 | 0.00 | 0.00 | 38 | 1021.0 |
| 20260906075315 | 23 | 141 | 1.6 | 1.6 | 0.00 | 0.00 | 0.00 | 39 | 1021.3 |
| 20260906074811 | 22 | 172 | 0.0 | 1.6 | 0.00 | 0.00 | 0.00 | 40 | 1021.2 |
| 20260906074310 | 22 | 172 | 0.0 | 0.0 | 0.00 | 0.00 | 0.00 | 41 | 1021.2 |
| 20260906073809 | 23 | 174 | 0.0 | 0.0 | 0.00 | 0.00 | 0.00 | 41 | 1021.2 |
| 20260906073305 | 23 | 173 | 0.0 | 0.0 | 0.00 | 0.00 | 0.00 | 40 | 1021.1 |
| 20260906072801 | 23 | 174 | 0.0 | 0.0 | 0.00 | 0.00 | 0.00 | 40 | 1021.4 |
| 20260906072256 | 23 | 152 | 0.0 | 1.6 | 0.00 | 0.00 | 0.00 | 39 | 1021.2 |
| 20260906071752 | 23 | 155 | 0.0 | 0.0 | 0.00 | 0.00 | 0.00 | 40 | 1021.0 |
| 20260906071252 | 23 | 160 | 0.0 | 0.0 | 0.00 | 0.00 | 0.00 | 39 | 1021.2 |
| 20260906070749 | 23 | 168 | 0.0 | 0.0 | 0.00 | 0.00 | 0.00 | 39 | 1021.1 |
| 20260906070244 | 23 | 166 | 0.0 | 0.0 | 0.00 | 0.00 | 0.00 | 38 | 1021.1 |
| 20260906065743 | 23 | 168 | 0.0 | 1.6 | 0.00 | 0.00 | 0.00 | 38 | 1021.1 |
| 20260906065239 | 23 | 155 | 0.0 | 0.0 | 0.00 | 0.00 | 0.00 | 38 | 1021.3 |
| 20260906064735 | 23 | 170 | 0.0 | 0.0 | 0.00 | 0.00 | 0.00 | 37 | 1021.3 |
| 20260906064230 | 24 | 172 | 0.0 | 0.0 | 0.00 | 0.00 | 0.00 | 36 | 1021.1 |
| 20260906063725 | 24 | 163 | 0.0 | 0.0 | 0.00 | 0.00 | 0.00 | 36 | 1021.1 |
| 20260906063221 | 24 | 178 | 1.6 | 3.2 | 0.00 | 0.00 | 0.00 | 36 | 1021.1 |
| 20260906062716 | 24 | 172 | 0.0 | 0.0 | 0.00 | 0.00 | 0.00 | 35 | 1021.2 |
| 20260906062215 | 24 | 163 | 0.0 | 0.0 | 0.00 | 0.00 | 0.00 | 35 | 1021.1 |
| 20260906061711 | 24 | 154 | 1.6 | 1.6 | 0.00 | 0.00 | 0.00 | 35 | 1021.1 |
| 20260906061207 | 24 | 172 | 0.0 | 0.0 | 0.00 | 0.00 | 0.00 | 34 | 1021.2 |
| 20260906060702 | 24 | 173 | 0.0 | 0.0 | 0.00 | 0.00 | 0.00 | 34 | 1021.1 |
| 20260906060159 | 25 | 172 | 0.0 | 0.0 | 0.00 | 0.00 | 0.00 | 34 | 1021.0 |
| 20260906055655 | 25 | 181 | 0.0 | 0.0 | 0.00 | 0.00 | 0.00 | 33 | 1021.0 |
| 20260906055150 | 26 | 181 | 0.0 | 0.0 | 0.00 | 0.00 | 0.00 | 32 | 1020.8 |
| 20260906054645 | 26 | 185 | 0.0 | 0.0 | 0.00 | 0.00 | 0.00 | 31 | 1020.8 |
| 20260906054140 | 26 | 207 | 0.0 | 0.0 | 0.00 | 0.00 | 0.00 | 31 | 1020.7 |
| 20260906053637 | 26 | 189 | 0.0 | 0.0 | 0.00 | 0.00 | 0.00 | 31 | 1020.5 |
| 20260906053137 | 27 | 173 | 0.0 | 0.0 | 0.00 | 0.00 | 0.00 | 30 | 1020.7 |
| 20260906052633 | 27 | 212 | 3.2 | 4.8 | 0.00 | 0.00 | 0.00 | 29 | 1020.8 |
| 20260906052129 | 27 | 196 | 6.4 | 9.7 | 0.00 | 0.00 | 0.00 | 29 | 1020.8 |
| 20260906051626 | 27 | 304 | 6.4 | 9.7 | 0.00 | 0.00 | 0.00 | 29 | 1020.7 |
| 20260906051125 | 27 | 308 | 4.8 | 6.4 | 0.00 | 0.00 | 0.00 | 29 | 1020.7 |
| 20260906050621 | 27 | 5 | 3.2 | 4.8 | 0.00 | 0.00 | 0.00 | 29 | 1020.5 |
| 20260906050116 | 27 | 254 | 1.6 | 3.2 | 0.00 | 0.00 | 0.00 | 29 | 1020.3 |
| 20260906045614 | 27 | 174 | 0.0 | 0.0 | 0.00 | 0.00 | 0.00 | 29 | 1020.6 |
| 20260906045110 | 27 | 33 | 3.2 | 4.8 | 0.00 | 0.00 | 0.00 | 29 | 1020.6 |
| 20260906044606 | 27 | 153 | 1.6 | 1.6 | 0.00 | 0.00 | 0.00 | 29 | 1020.5 |
| 20260906044100 | 27 | 74 | 3.2 | 3.2 | 0.00 | 0.00 | 0.00 | 29 | 1020.7 |
| 20260906043557 | 27 | 78 | 3.2 | 3.2 | 0.00 | 0.00 | 0.00 | 28 | 1020.7 |
| 20260906043052 | 27 | 22 | 4.8 | 4.8 | 0.00 | 0.00 | 0.00 | 28 | 1020.6 |
| 20260906042551 | 27 | 144 | 1.6 | 3.2 | 0.00 | 0.00 | 0.00 | 29 | 1020.5 |
| 20260906042046 | 28 | 29 | 3.2 | 4.8 | 0.00 | 0.00 | 0.00 | 28 | 1020.5 |
| 20260906041542 | 27 | 52 | 3.2 | 3.2 | 0.00 | 0.00 | 0.00 | 29 | 1020.4 |
| 20260906041037 | 27 | 161 | 3.2 | 3.2 | 0.00 | 0.00 | 0.00 | 29 | 1020.5 |
| 20260906040532 | 27 | 49 | 3.2 | 3.2 | 0.00 | 0.00 | 0.00 | 29 | 1020.5 |
| 20260906040028 | 27 | 122 | 4.8 | 6.4 | 0.00 | 0.00 | 0.00 | 30 | 1020.6 |
| 20260906035522 | 27 | 137 | 4.8 | 4.8 | 0.00 | 0.00 | 0.00 | 29 | 1020.6 |
| 20260906035019 | 27 | 99 | 1.6 | 1.6 | 0.00 | 0.00 | 0.00 | 30 | 1020.7 |
| 20260906034518 | 27 | 164 | 0.0 | 0.0 | 0.00 | 0.00 | 0.00 | 30 | 1020.6 |
| 20260906034013 | 27 | 144 | 1.6 | 1.6 | 0.00 | 0.00 | 0.00 | 30 | 1020.3 |
| 20260906033508 | 27 | 124 | 1.6 | 1.6 | 0.00 | 0.00 | 0.00 | 29 | 1020.4 |
| 20260906033004 | 27 | 181 | 0.0 | 1.6 | 0.00 | 0.00 | 0.00 | 29 | 1020.3 |
| 20260906032500 | 27 | 94 | 1.6 | 3.2 | 0.00 | 0.00 | 0.00 | 29 | 1020.3 |
| 20260906032000 | 27 | 163 | 0.0 | 0.0 | 0.00 | 0.00 | 0.00 | 30 | 1020.1 |
| 20260906031456 | 27 | 154 | 1.6 | 3.2 | 0.00 | 0.00 | 0.00 | 30 | 1020.1 |
| 20260906030951 | 27 | 167 | 0.0 | 0.0 | 0.00 | 0.00 | 0.00 | 32 | 1020.0 |
| 20260906030445 | 27 | 168 | 0.0 | 0.0 | 0.00 | 0.00 | 0.00 | 32 | 1019.9 |
| 20260906025940 | 27 | 166 | 0.0 | 0.0 | 0.00 | 0.00 | 0.00 | 31 | 1019.8 |
| 20260906025439 | 27 | 152 | 1.6 | 1.6 | 0.00 | 0.00 | 0.00 | 31 | 1019.7 |
| 20260906024938 | 28 | 165 | 0.0 | 0.0 | 0.00 | 0.00 | 0.00 | 32 | 1019.7 |
| 20260906024433 | 28 | 157 | 1.6 | 1.6 | 0.00 | 0.00 | 0.00 | 31 | 1019.6 |
| 20260906023932 | 28 | 207 | 0.0 | 1.6 | 0.00 | 0.00 | 0.00 | 31 | 1019.6 |
| 20260906023430 | 28 | 257 | 3.2 | 3.2 | 0.00 | 0.00 | 0.00 | 31 | 1019.4 |
| 20260906022930 | 28 | 147 | 0.0 | 1.6 | 0.00 | 0.00 | 0.00 | 31 | 1019.2 |
| 20260906022425 | 28 | 161 | 0.0 | 0.0 | 0.00 | 0.00 | 0.00 | 31 | 1019.2 |
| 20260906021920 | 28 | 185 | 0.0 | 0.0 | 0.00 | 0.00 | 0.00 | 31 | 1019.4 |
| 20260906021415 | 28 | 164 | 0.0 | 0.0 | 0.00 | 0.00 | 0.00 | 32 | 1019.0 |
| 20260906020914 | 28 | 157 | 0.0 | 0.0 | 0.00 | 0.00 | 0.00 | 31 | 1019.2 |
| 20260906020409 | 28 | 180 | 0.0 | 1.6 | 0.00 | 0.00 | 0.00 | 30 | 1019.2 |
| 20260906015904 | 29 | 164 | 0.0 | 0.0 | 0.00 | 0.00 | 0.00 | 30 | 1019.1 |
| 20260906015403 | 29 | 180 | 0.0 | 0.0 | 0.00 | 0.00 | 0.00 | 30 | 1019.1 |
| 20260906014903 | 30 | 182 | 0.0 | 0.0 | 0.00 | 0.00 | 0.00 | 29 | 1019.1 |
| 20260906014402 | 30 | 185 | 0.0 | 0.0 | 0.00 | 0.00 | 0.00 | 29 | 1018.9 |
| 20260906013859 | 30 | 218 | 1.6 | 1.6 | 0.00 | 0.00 | 0.00 | 29 | 1019.3 |
| 20260906013354 | 30 | 189 | 0.0 | 0.0 | 0.00 | 0.00 | 0.00 | 28 | 1019.0 |
| 20260906012849 | 30 | 237 | 0.0 | 1.6 | 0.00 | 0.00 | 0.00 | 28 | 1019.1 |
| 20260906012344 | 30 | 176 | 1.6 | 3.2 | 0.00 | 0.00 | 0.00 | 28 | 1019.0 |
| 20260906011843 | 30 | 150 | 3.2 | 3.2 | 0.00 | 0.00 | 0.00 | 27 | 1019.0 |
| 20260906011339 | 31 | 287 | 4.8 | 6.4 | 0.00 | 0.00 | 0.00 | 27 | 1019.1 |
| 20260906010835 | 31 | 190 | 1.6 | 1.6 | 0.00 | 0.00 | 0.00 | 27 | 1019.1 |
| 20260906010331 | 31 | 281 | 1.6 | 1.6 | 0.00 | 0.00 | 0.00 | 28 | 1019.0 |
| 20260906005826 | 31 | 355 | 3.2 | 3.2 | 0.00 | 0.00 | 0.00 | 27 | 1019.0 |
| 20260906005325 | 31 | 311 | 3.2 | 4.8 | 0.00 | 0.00 | 0.00 | 27 | 1019.0 |
| 20260906004824 | 31 | 140 | 1.6 | 1.6 | 0.00 | 0.00 | 0.00 | 27 | 1019.1 |
| 20260906004324 | 31 | 164 | 1.6 | 1.6 | 0.00 | 0.00 | 0.00 | 26 | 1019.0 |
| 20260906003819 | 32 | 207 | 1.6 | 3.2 | 0.00 | 0.00 | 0.00 | 26 | 1019.1 |
| 20260906003315 | 32 | 192 | 1.6 | 3.2 | 0.00 | 0.00 | 0.00 | 26 | 1019.1 |
| 20260906002810 | 32 | 242 | 4.8 | 6.4 | 0.00 | 0.00 | 0.00 | 26 | 1019.0 |
| 20260906002309 | 32 | 315 | 1.6 | 1.6 | 0.00 | 0.00 | 0.00 | 26 | 1019.1 |
| 20260906001805 | 32 | 352 | 4.8 | 4.8 | 0.00 | 0.00 | 0.00 | 26 | 1019.0 |
| 20260906001300 | 33 | 200 | 1.6 | 3.2 | 0.00 | 0.00 | 0.00 | 25 | 1018.6 |
| 20260906000756 | 33 | 225 | 4.8 | 4.8 | 0.00 | 0.00 | 0.00 | 24 | 1019.0 |
| 20260906000256 | 33 | 207 | 1.6 | 1.6 | 0.00 | 0.00 | 0.00 | 24 | 1019.1 |
| 20260905235750 | 33 | 311 | 3.2 | 3.2 | 0.00 | 0.00 | 0.00 | 25 | 1018.7 |
| 20260905235250 | 33 | 226 | 0.0 | 1.6 | 0.00 | 0.00 | 0.00 | 25 | 1019.0 |
| 20260905234746 | 33 | 208 | 3.2 | 3.2 | 0.00 | 0.00 | 0.00 | 24 | 1018.9 |